sensor_id;sensor_type;location;lat;lon;timestamp;pressure;altitude;pressure_sealevel;temperature;humidity
50310;BME280;36207;51.850;21.698;2023-04-06T00:02:13;100403.11;;;0.26;58.38
50310;BME280;36207;51.850;21.698;2023-04-06T00:04:39;100405.29;;;0.27;58.32
50310;BME280;36207;51.850;21.698;2023-04-06T00:07:05;100409.80;;;0.27;58.35
50310;BME280;36207;51.850;21.698;2023-04-06T00:09:31;100404.63;;;0.29;58.23
50310;BME280;36207;51.850;21.698;2023-04-06T00:11:57;100403.00;;;0.32;58.22
50310;BME280;36207;51.850;21.698;2023-04-06T00:14:23;100398.98;;;0.34;58.26
50310;BME280;36207;51.850;21.698;2023-04-06T00:16:49;100394.58;;;0.37;58.35
50310;BME280;36207;51.850;21.698;2023-04-06T00:19:16;100394.41;;;0.40;58.61
50310;BME280;36207;51.850;21.698;2023-04-06T00:21:42;100391.20;;;0.41;58.59
50310;BME280;36207;51.850;21.698;2023-04-06T00:24:08;100388.45;;;0.42;58.42
50310;BME280;36207;51.850;21.698;2023-04-06T00:26:34;100392.14;;;0.45;58.46
50310;BME280;36207;51.850;21.698;2023-04-06T00:29:00;100385.59;;;0.46;58.45
50310;BME280;36207;51.850;21.698;2023-04-06T00:31:26;100386.77;;;0.47;58.52
50310;BME280;36207;51.850;21.698;2023-04-06T00:33:52;100380.52;;;0.46;58.46
50310;BME280;36207;51.850;21.698;2023-04-06T00:36:18;100378.88;;;0.47;58.49
50310;BME280;36207;51.850;21.698;2023-04-06T00:38:44;100379.61;;;0.49;58.47
50310;BME280;36207;51.850;21.698;2023-04-06T00:41:11;100377.42;;;0.50;58.40
50310;BME280;36207;51.850;21.698;2023-04-06T00:43:37;100377.48;;;0.52;58.48
50310;BME280;36207;51.850;21.698;2023-04-06T00:46:03;100369.89;;;0.53;58.43
50310;BME280;36207;51.850;21.698;2023-04-06T00:48:29;100369.98;;;0.54;58.46
50310;BME280;36207;51.850;21.698;2023-04-06T00:50:57;100366.60;;;0.55;58.61
50310;BME280;36207;51.850;21.698;2023-04-06T00:53:23;100362.88;;;0.55;58.49
50310;BME280;36207;51.850;21.698;2023-04-06T00:55:49;100364.19;;;0.57;58.44
50310;BME280;36207;51.850;21.698;2023-04-06T00:58:15;100363.37;;;0.58;58.52
50310;BME280;36207;51.850;21.698;2023-04-06T01:00:42;100358.84;;;0.58;58.62
50310;BME280;36207;51.850;21.698;2023-04-06T01:03:08;100358.69;;;0.58;58.70
50310;BME280;36207;51.850;21.698;2023-04-06T01:05:35;100359.08;;;0.57;58.55
50310;BME280;36207;51.850;21.698;2023-04-06T01:08:07;100353.87;;;0.56;58.86
50310;BME280;36207;51.850;21.698;2023-04-06T01:10:33;100358.46;;;0.56;58.88
50310;BME280;36207;51.850;21.698;2023-04-06T01:13:00;100359.56;;;0.55;58.81
50310;BME280;36207;51.850;21.698;2023-04-06T01:15:26;100358.52;;;0.55;58.95
50310;BME280;36207;51.850;21.698;2023-04-06T01:17:54;100365.00;;;0.55;58.96
50310;BME280;36207;51.850;21.698;2023-04-06T01:20:19;100357.77;;;0.56;58.89
50310;BME280;36207;51.850;21.698;2023-04-06T01:22:46;100355.24;;;0.57;58.96
50310;BME280;36207;51.850;21.698;2023-04-06T01:25:12;100355.68;;;0.58;59.08
50310;BME280;36207;51.850;21.698;2023-04-06T01:27:38;100351.27;;;0.58;58.94
50310;BME280;36207;51.850;21.698;2023-04-06T01:30:05;100351.27;;;0.58;58.87
50310;BME280;36207;51.850;21.698;2023-04-06T01:32:31;100351.21;;;0.60;59.17
50310;BME280;36207;51.850;21.698;2023-04-06T01:34:57;100351.66;;;0.60;59.13
50310;BME280;36207;51.850;21.698;2023-04-06T01:37:23;100351.25;;;0.61;59.09
50310;BME280;36207;51.850;21.698;2023-04-06T01:39:50;100344.36;;;0.62;59.24
50310;BME280;36207;51.850;21.698;2023-04-06T01:42:16;100343.03;;;0.63;59.21
50310;BME280;36207;51.850;21.698;2023-04-06T01:44:42;100336.11;;;0.65;59.16
50310;BME280;36207;51.850;21.698;2023-04-06T01:47:08;100336.87;;;0.66;59.17
50310;BME280;36207;51.850;21.698;2023-04-06T01:49:34;100335.02;;;0.68;59.25
50310;BME280;36207;51.850;21.698;2023-04-06T01:52:00;100333.02;;;0.69;59.24
50310;BME280;36207;51.850;21.698;2023-04-06T01:54:26;100331.95;;;0.69;59.20
50310;BME280;36207;51.850;21.698;2023-04-06T01:56:52;100329.23;;;0.71;59.24
50310;BME280;36207;51.850;21.698;2023-04-06T01:59:18;100325.84;;;0.71;59.20
50310;BME280;36207;51.850;21.698;2023-04-06T02:01:47;100321.07;;;0.72;59.06
50310;BME280;36207;51.850;21.698;2023-04-06T02:04:13;100321.85;;;0.73;59.24
50310;BME280;36207;51.850;21.698;2023-04-06T02:06:40;100319.77;;;0.75;59.15
50310;BME280;36207;51.850;21.698;2023-04-06T02:09:06;100313.65;;;0.75;59.29
50310;BME280;36207;51.850;21.698;2023-04-06T02:11:32;100310.31;;;0.75;59.32
50310;BME280;36207;51.850;21.698;2023-04-06T02:14:01;100305.77;;;0.75;59.41
50310;BME280;36207;51.850;21.698;2023-04-06T02:16:27;100305.60;;;0.75;59.34
50310;BME280;36207;51.850;21.698;2023-04-06T02:18:53;100304.88;;;0.75;59.30
50310;BME280;36207;51.850;21.698;2023-04-06T02:21:19;100300.03;;;0.77;59.40
50310;BME280;36207;51.850;21.698;2023-04-06T02:23:46;100302.54;;;0.79;59.22
50310;BME280;36207;51.850;21.698;2023-04-06T02:26:13;100304.27;;;0.79;59.21
50310;BME280;36207;51.850;21.698;2023-04-06T02:28:39;100304.80;;;0.79;59.35
50310;BME280;36207;51.850;21.698;2023-04-06T02:31:05;100303.67;;;0.80;59.30
50310;BME280;36207;51.850;21.698;2023-04-06T02:33:32;100299.25;;;0.80;59.36
50310;BME280;36207;51.850;21.698;2023-04-06T02:35:57;100301.64;;;0.81;59.35
50310;BME280;36207;51.850;21.698;2023-04-06T02:38:23;100303.77;;;0.81;59.33
50310;BME280;36207;51.850;21.698;2023-04-06T02:40:49;100300.80;;;0.81;59.45
50310;BME280;36207;51.850;21.698;2023-04-06T02:43:16;100303.28;;;0.80;59.48
50310;BME280;36207;51.850;21.698;2023-04-06T02:45:43;100304.32;;;0.81;59.33
50310;BME280;36207;51.850;21.698;2023-04-06T02:48:08;100301.92;;;0.80;59.52
50310;BME280;36207;51.850;21.698;2023-04-06T02:50:34;100302.86;;;0.82;59.51
50310;BME280;36207;51.850;21.698;2023-04-06T02:53:01;100301.23;;;0.82;59.61
50310;BME280;36207;51.850;21.698;2023-04-06T02:55:27;100303.48;;;0.82;59.73
50310;BME280;36207;51.850;21.698;2023-04-06T02:57:52;100297.34;;;0.82;59.70
50310;BME280;36207;51.850;21.698;2023-04-06T03:00:19;100297.50;;;0.83;59.73
50310;BME280;36207;51.850;21.698;2023-04-06T03:02:45;100295.23;;;0.82;59.90
50310;BME280;36207;51.850;21.698;2023-04-06T03:05:11;100297.77;;;0.82;59.87
50310;BME280;36207;51.850;21.698;2023-04-06T03:07:37;100295.92;;;0.83;59.72
50310;BME280;36207;51.850;21.698;2023-04-06T03:10:03;100292.84;;;0.84;59.79
50310;BME280;36207;51.850;21.698;2023-04-06T03:12:29;100295.55;;;0.85;59.87
50310;BME280;36207;51.850;21.698;2023-04-06T03:14:55;100291.90;;;0.87;59.71
50310;BME280;36207;51.850;21.698;2023-04-06T03:17:21;100295.29;;;0.89;59.68
50310;BME280;36207;51.850;21.698;2023-04-06T03:19:47;100297.59;;;0.92;59.67
50310;BME280;36207;51.850;21.698;2023-04-06T03:22:13;100293.19;;;0.92;59.64
50310;BME280;36207;51.850;21.698;2023-04-06T03:24:39;100290.89;;;0.92;59.85
50310;BME280;36207;51.850;21.698;2023-04-06T03:27:05;100291.58;;;0.92;59.76
50310;BME280;36207;51.850;21.698;2023-04-06T03:29:31;100290.77;;;0.94;59.65
50310;BME280;36207;51.850;21.698;2023-04-06T03:31:57;100291.80;;;0.94;59.58
50310;BME280;36207;51.850;21.698;2023-04-06T03:34:24;100292.48;;;0.94;59.63
50310;BME280;36207;51.850;21.698;2023-04-06T03:36:50;100287.34;;;0.95;59.70
50310;BME280;36207;51.850;21.698;2023-04-06T03:39:16;100287.23;;;0.97;59.55
50310;BME280;36207;51.850;21.698;2023-04-06T03:41:42;100290.96;;;0.96;59.65
50310;BME280;36207;51.850;21.698;2023-04-06T03:44:08;100286.86;;;0.97;59.67
50310;BME280;36207;51.850;21.698;2023-04-06T03:46:35;100286.66;;;0.97;59.58
50310;BME280;36207;51.850;21.698;2023-04-06T03:49:01;100292.81;;;0.97;59.48
50310;BME280;36207;51.850;21.698;2023-04-06T03:51:27;100290.89;;;0.97;59.66
50310;BME280;36207;51.850;21.698;2023-04-06T03:53:53;100289.77;;;0.98;59.67
50310;BME280;36207;51.850;21.698;2023-04-06T03:56:19;100286.88;;;0.99;59.68
50310;BME280;36207;51.850;21.698;2023-04-06T03:58:46;100284.79;;;0.99;59.69
50310;BME280;36207;51.850;21.698;2023-04-06T04:01:17;100283.96;;;1.00;59.70
50310;BME280;36207;51.850;21.698;2023-04-06T04:03:44;100278.72;;;1.03;59.65
50310;BME280;36207;51.850;21.698;2023-04-06T04:06:10;100276.21;;;1.03;59.74
50310;BME280;36207;51.850;21.698;2023-04-06T04:08:36;100276.41;;;1.03;59.76
50310;BME280;36207;51.850;21.698;2023-04-06T04:11:02;100280.86;;;1.04;59.79
50310;BME280;36207;51.850;21.698;2023-04-06T04:13:28;100276.67;;;1.04;59.83
50310;BME280;36207;51.850;21.698;2023-04-06T04:15:54;100274.45;;;1.04;59.96
50310;BME280;36207;51.850;21.698;2023-04-06T04:18:20;100271.80;;;1.04;59.84
50310;BME280;36207;51.850;21.698;2023-04-06T04:20:46;100270.70;;;1.04;59.91
50310;BME280;36207;51.850;21.698;2023-04-06T04:23:12;100266.94;;;1.05;59.74
50310;BME280;36207;51.850;21.698;2023-04-06T04:25:38;100272.41;;;1.07;59.94
50310;BME280;36207;51.850;21.698;2023-04-06T04:28:04;100273.15;;;1.09;59.71
50310;BME280;36207;51.850;21.698;2023-04-06T04:30:30;100276.08;;;1.10;59.87
50310;BME280;36207;51.850;21.698;2023-04-06T04:32:56;100275.30;;;1.11;59.89
50310;BME280;36207;51.850;21.698;2023-04-06T04:35:22;100271.52;;;1.12;59.82
50310;BME280;36207;51.850;21.698;2023-04-06T04:37:48;100271.17;;;1.15;59.88
50310;BME280;36207;51.850;21.698;2023-04-06T04:40:14;100270.85;;;1.17;59.92
50310;BME280;36207;51.850;21.698;2023-04-06T04:42:41;100261.68;;;1.20;59.92
50310;BME280;36207;51.850;21.698;2023-04-06T04:45:07;100262.88;;;1.20;59.86
50310;BME280;36207;51.850;21.698;2023-04-06T04:47:33;100258.89;;;1.22;59.75
50310;BME280;36207;51.850;21.698;2023-04-06T04:49:59;100257.68;;;1.24;60.00
50310;BME280;36207;51.850;21.698;2023-04-06T04:52:25;100252.67;;;1.25;59.94
50310;BME280;36207;51.850;21.698;2023-04-06T04:54:51;100252.55;;;1.27;59.87
50310;BME280;36207;51.850;21.698;2023-04-06T04:57:17;100251.11;;;1.27;60.05
50310;BME280;36207;51.850;21.698;2023-04-06T04:59:43;100249.36;;;1.27;60.00
50310;BME280;36207;51.850;21.698;2023-04-06T05:02:09;100252.64;;;1.31;60.11
50310;BME280;36207;51.850;21.698;2023-04-06T05:04:36;100250.48;;;1.33;60.12
50310;BME280;36207;51.850;21.698;2023-04-06T05:07:10;100248.59;;;1.36;59.95
50310;BME280;36207;51.850;21.698;2023-04-06T05:09:37;100242.62;;;1.41;60.23
50310;BME280;36207;51.850;21.698;2023-04-06T05:12:03;100238.40;;;1.45;60.31
50310;BME280;36207;51.850;21.698;2023-04-06T05:14:29;100232.83;;;1.47;60.28
50310;BME280;36207;51.850;21.698;2023-04-06T05:16:55;100230.86;;;1.48;60.13
50310;BME280;36207;51.850;21.698;2023-04-06T05:19:21;100233.83;;;1.50;60.23
50310;BME280;36207;51.850;21.698;2023-04-06T05:21:47;100232.91;;;1.53;60.12
50310;BME280;36207;51.850;21.698;2023-04-06T05:24:14;100233.20;;;1.56;60.13
50310;BME280;36207;51.850;21.698;2023-04-06T05:26:40;100232.22;;;1.57;59.99
50310;BME280;36207;51.850;21.698;2023-04-06T05:29:06;100234.41;;;1.59;60.08
50310;BME280;36207;51.850;21.698;2023-04-06T05:31:32;100234.25;;;1.61;60.31
50310;BME280;36207;51.850;21.698;2023-04-06T05:33:58;100233.56;;;1.63;60.44
50310;BME280;36207;51.850;21.698;2023-04-06T05:36:25;100231.10;;;1.65;60.52
50310;BME280;36207;51.850;21.698;2023-04-06T05:38:51;100229.95;;;1.69;60.41
50310;BME280;36207;51.850;21.698;2023-04-06T05:41:18;100228.80;;;1.72;60.47
50310;BME280;36207;51.850;21.698;2023-04-06T05:43:44;100222.96;;;1.73;60.83
50310;BME280;36207;51.850;21.698;2023-04-06T05:46:10;100221.91;;;1.73;60.75
50310;BME280;36207;51.850;21.698;2023-04-06T05:48:37;100224.52;;;1.76;60.79
50310;BME280;36207;51.850;21.698;2023-04-06T05:51:03;100220.25;;;1.81;60.85
50310;BME280;36207;51.850;21.698;2023-04-06T05:53:32;100213.59;;;1.85;60.93
50310;BME280;36207;51.850;21.698;2023-04-06T05:56:02;100214.88;;;1.87;61.02
50310;BME280;36207;51.850;21.698;2023-04-06T05:58:28;100206.61;;;1.92;60.94
50310;BME280;36207;51.850;21.698;2023-04-06T06:01:01;100208.52;;;1.96;61.05
50310;BME280;36207;51.850;21.698;2023-04-06T06:03:28;100212.27;;;1.98;61.33
50310;BME280;36207;51.850;21.698;2023-04-06T06:06:02;100212.23;;;1.98;61.04
50310;BME280;36207;51.850;21.698;2023-04-06T06:08:29;100210.80;;;1.98;61.19
50310;BME280;36207;51.850;21.698;2023-04-06T06:10:55;100209.98;;;1.98;61.16
50310;BME280;36207;51.850;21.698;2023-04-06T06:13:24;100211.14;;;1.99;61.31
50310;BME280;36207;51.850;21.698;2023-04-06T06:15:50;100210.09;;;1.99;61.52
50310;BME280;36207;51.850;21.698;2023-04-06T06:18:16;100212.41;;;1.98;61.46
50310;BME280;36207;51.850;21.698;2023-04-06T06:20:42;100206.02;;;2.01;61.51
50310;BME280;36207;51.850;21.698;2023-04-06T06:23:08;100200.85;;;2.07;61.84
50310;BME280;36207;51.850;21.698;2023-04-06T06:25:36;100199.48;;;2.13;61.81
50310;BME280;36207;51.850;21.698;2023-04-06T06:28:02;100199.48;;;2.20;61.90
50310;BME280;36207;51.850;21.698;2023-04-06T06:30:28;100197.30;;;2.25;61.92
50310;BME280;36207;51.850;21.698;2023-04-06T06:32:54;100195.65;;;2.31;61.95
50310;BME280;36207;51.850;21.698;2023-04-06T06:35:20;100198.36;;;2.32;62.06
50310;BME280;36207;51.850;21.698;2023-04-06T06:37:46;100202.21;;;2.32;61.88
50310;BME280;36207;51.850;21.698;2023-04-06T06:40:12;100195.28;;;2.31;62.04
50310;BME280;36207;51.850;21.698;2023-04-06T06:42:39;100199.27;;;2.32;61.97
50310;BME280;36207;51.850;21.698;2023-04-06T06:45:07;100193.23;;;2.32;61.95
50310;BME280;36207;51.850;21.698;2023-04-06T06:47:33;100197.86;;;2.34;62.06
50310;BME280;36207;51.850;21.698;2023-04-06T06:49:59;100192.96;;;2.34;62.22
50310;BME280;36207;51.850;21.698;2023-04-06T06:52:25;100195.45;;;2.35;62.13
50310;BME280;36207;51.850;21.698;2023-04-06T06:54:51;100197.63;;;2.37;62.20
50310;BME280;36207;51.850;21.698;2023-04-06T06:57:17;100191.59;;;2.37;62.16
50310;BME280;36207;51.850;21.698;2023-04-06T06:59:43;100194.05;;;2.40;62.15
50310;BME280;36207;51.850;21.698;2023-04-06T07:02:09;100186.31;;;2.42;62.31
50310;BME280;36207;51.850;21.698;2023-04-06T07:04:35;100182.76;;;2.44;62.48
50310;BME280;36207;51.850;21.698;2023-04-06T07:07:01;100180.25;;;2.50;62.73
50310;BME280;36207;51.850;21.698;2023-04-06T07:09:27;100182.29;;;2.57;62.79
50310;BME280;36207;51.850;21.698;2023-04-06T07:11:53;100178.91;;;2.64;62.96
50310;BME280;36207;51.850;21.698;2023-04-06T07:14:19;100177.76;;;2.69;63.48
50310;BME280;36207;51.850;21.698;2023-04-06T07:16:45;100174.75;;;2.72;63.02
50310;BME280;36207;51.850;21.698;2023-04-06T07:19:12;100176.89;;;2.72;62.77
50310;BME280;36207;51.850;21.698;2023-04-06T07:21:38;100173.91;;;2.74;63.06
50310;BME280;36207;51.850;21.698;2023-04-06T07:24:04;100176.24;;;2.75;63.38
50310;BME280;36207;51.850;21.698;2023-04-06T07:26:30;100176.09;;;2.75;63.03
50310;BME280;36207;51.850;21.698;2023-04-06T07:28:56;100172.63;;;2.77;63.02
50310;BME280;36207;51.850;21.698;2023-04-06T07:31:22;100175.22;;;2.75;63.23
50310;BME280;36207;51.850;21.698;2023-04-06T07:33:48;100179.14;;;2.68;63.38
50310;BME280;36207;51.850;21.698;2023-04-06T07:36:15;100175.26;;;2.63;63.28
50310;BME280;36207;51.850;21.698;2023-04-06T07:38:41;100179.61;;;2.60;63.68
50310;BME280;36207;51.850;21.698;2023-04-06T07:41:07;100179.06;;;2.55;63.63
50310;BME280;36207;51.850;21.698;2023-04-06T07:43:33;100182.85;;;2.54;63.51
50310;BME280;36207;51.850;21.698;2023-04-06T07:45:59;100181.00;;;2.55;63.56
50310;BME280;36207;51.850;21.698;2023-04-06T07:48:26;100182.85;;;2.59;63.77
50310;BME280;36207;51.850;21.698;2023-04-06T07:50:52;100185.14;;;2.61;63.96
50310;BME280;36207;51.850;21.698;2023-04-06T07:53:18;100181.31;;;2.60;63.81
50310;BME280;36207;51.850;21.698;2023-04-06T07:55:44;100179.89;;;2.60;63.85
50310;BME280;36207;51.850;21.698;2023-04-06T07:58:10;100179.88;;;2.56;64.05
50310;BME280;36207;51.850;21.698;2023-04-06T08:00:36;100181.59;;;2.53;63.89
50310;BME280;36207;51.850;21.698;2023-04-06T08:03:02;100179.27;;;2.51;64.13
50310;BME280;36207;51.850;21.698;2023-04-06T08:05:28;100167.79;;;2.49;64.31
50310;BME280;36207;51.850;21.698;2023-04-06T08:07:54;100168.56;;;2.49;64.20
50310;BME280;36207;51.850;21.698;2023-04-06T08:10:20;100165.82;;;2.50;64.59
50310;BME280;36207;51.850;21.698;2023-04-06T08:12:45;100160.38;;;2.52;64.42
50310;BME280;36207;51.850;21.698;2023-04-06T08:15:11;100157.94;;;2.56;65.03
50310;BME280;36207;51.850;21.698;2023-04-06T08:17:37;100154.52;;;2.59;64.59
50310;BME280;36207;51.850;21.698;2023-04-06T08:20:04;100146.98;;;2.65;64.63
50310;BME280;36207;51.850;21.698;2023-04-06T08:22:30;100142.47;;;2.69;64.75
50310;BME280;36207;51.850;21.698;2023-04-06T08:24:56;100143.33;;;2.65;65.54
50310;BME280;36207;51.850;21.698;2023-04-06T08:27:22;100143.94;;;2.55;65.52
50310;BME280;36207;51.850;21.698;2023-04-06T08:29:49;100140.15;;;2.48;65.38
50310;BME280;36207;51.850;21.698;2023-04-06T08:32:16;100138.55;;;2.46;65.52
50310;BME280;36207;51.850;21.698;2023-04-06T08:34:42;100129.19;;;2.49;65.94
50310;BME280;36207;51.850;21.698;2023-04-06T08:37:08;100123.88;;;2.51;65.92
50310;BME280;36207;51.850;21.698;2023-04-06T08:39:34;100122.45;;;2.54;66.22
50310;BME280;36207;51.850;21.698;2023-04-06T08:42:01;100123.79;;;2.59;66.10
50310;BME280;36207;51.850;21.698;2023-04-06T08:44:29;100117.17;;;2.64;66.56
50310;BME280;36207;51.850;21.698;2023-04-06T08:46:59;100113.80;;;2.65;67.07
50310;BME280;36207;51.850;21.698;2023-04-06T08:49:25;100110.13;;;2.58;66.90
50310;BME280;36207;51.850;21.698;2023-04-06T08:51:52;100109.41;;;2.54;67.00
50310;BME280;36207;51.850;21.698;2023-04-06T08:54:18;100113.05;;;2.53;66.97
50310;BME280;36207;51.850;21.698;2023-04-06T08:56:44;100111.27;;;2.51;66.51
50310;BME280;36207;51.850;21.698;2023-04-06T08:59:11;100103.88;;;2.53;66.72
50310;BME280;36207;51.850;21.698;2023-04-06T09:01:39;100100.53;;;2.53;66.77
50310;BME280;36207;51.850;21.698;2023-04-06T09:04:09;100104.08;;;2.53;66.60
50310;BME280;36207;51.850;21.698;2023-04-06T09:06:37;100104.53;;;2.52;66.97
50310;BME280;36207;51.850;21.698;2023-04-06T09:09:04;100102.83;;;2.46;67.23
50310;BME280;36207;51.850;21.698;2023-04-06T09:11:47;100101.99;;;2.41;67.43
50310;BME280;36207;51.850;21.698;2023-04-06T09:14:13;100099.70;;;2.35;67.41
50310;BME280;36207;51.850;21.698;2023-04-06T09:16:42;100102.02;;;2.33;66.91
50310;BME280;36207;51.850;21.698;2023-04-06T09:19:09;100092.58;;;2.32;67.50
50310;BME280;36207;51.850;21.698;2023-04-06T09:21:36;100091.59;;;2.29;67.37
50310;BME280;36207;51.850;21.698;2023-04-06T09:24:03;100089.71;;;2.26;67.65
50310;BME280;36207;51.850;21.698;2023-04-06T09:26:29;100095.23;;;2.23;67.79
50310;BME280;36207;51.850;21.698;2023-04-06T09:28:57;100094.34;;;2.19;67.67
50310;BME280;36207;51.850;21.698;2023-04-06T09:31:31;100091.69;;;2.17;68.48
50310;BME280;36207;51.850;21.698;2023-04-06T09:34:00;100090.09;;;2.15;67.91
50310;BME280;36207;51.850;21.698;2023-04-06T09:36:31;100084.36;;;2.16;68.51
50310;BME280;36207;51.850;21.698;2023-04-06T09:38:59;100090.80;;;2.17;68.14
50310;BME280;36207;51.850;21.698;2023-04-06T09:41:34;100096.48;;;2.18;68.33
50310;BME280;36207;51.850;21.698;2023-04-06T09:44:04;100093.61;;;2.19;68.04
50310;BME280;36207;51.850;21.698;2023-04-06T09:46:32;100083.87;;;2.20;68.04
50310;BME280;36207;51.850;21.698;2023-04-06T09:49:02;100077.16;;;2.23;68.18
50310;BME280;36207;51.850;21.698;2023-04-06T09:52:01;100073.35;;;2.29;68.26
50310;BME280;36207;51.850;21.698;2023-04-06T09:54:28;100068.39;;;2.31;68.92
50310;BME280;36207;51.850;21.698;2023-04-06T09:57:07;100061.83;;;2.28;69.21
50310;BME280;36207;51.850;21.698;2023-04-06T10:02:58;100056.79;;;2.22;69.54
50310;BME280;36207;51.850;21.698;2023-04-06T10:05:37;100058.13;;;2.23;69.44
50310;BME280;36207;51.850;21.698;2023-04-06T10:08:11;100055.73;;;2.27;69.33
50310;BME280;36207;51.850;21.698;2023-04-06T10:10:38;100055.61;;;2.33;69.44
50310;BME280;36207;51.850;21.698;2023-04-06T10:13:04;100050.61;;;2.38;69.01
50310;BME280;36207;51.850;21.698;2023-04-06T10:15:31;100049.33;;;2.43;69.32
50310;BME280;36207;51.850;21.698;2023-04-06T10:17:58;100042.05;;;2.44;69.93
50310;BME280;36207;51.850;21.698;2023-04-06T10:23:06;100059.20;;;2.47;69.17
50310;BME280;36207;51.850;21.698;2023-04-06T10:25:34;100051.98;;;2.50;69.31
50310;BME280;36207;51.850;21.698;2023-04-06T10:28:05;100046.65;;;2.54;69.55
50310;BME280;36207;51.850;21.698;2023-04-06T10:30:32;100050.07;;;2.55;69.59
50310;BME280;36207;51.850;21.698;2023-04-06T10:33:00;100050.42;;;2.56;68.93
50310;BME280;36207;51.850;21.698;2023-04-06T10:35:39;100053.58;;;2.58;68.96
50310;BME280;36207;51.850;21.698;2023-04-06T10:38:05;100053.98;;;2.57;69.56
50310;BME280;36207;51.850;21.698;2023-04-06T10:40:31;100056.77;;;2.59;69.42
50310;BME280;36207;51.850;21.698;2023-04-06T10:43:18;100050.09;;;2.62;69.62
50310;BME280;36207;51.850;21.698;2023-04-06T10:45:44;100045.48;;;2.62;69.99
50310;BME280;36207;51.850;21.698;2023-04-06T10:48:17;100034.31;;;2.59;69.88
50310;BME280;36207;51.850;21.698;2023-04-06T10:50:48;100034.77;;;2.58;69.27
50310;BME280;36207;51.850;21.698;2023-04-06T10:53:26;100035.69;;;2.63;69.29
50310;BME280;36207;51.850;21.698;2023-04-06T10:55:54;100035.16;;;2.68;69.50
50310;BME280;36207;51.850;21.698;2023-04-06T10:58:25;100030.91;;;2.70;70.03
50310;BME280;36207;51.850;21.698;2023-04-06T11:00:51;100025.90;;;2.73;69.60
50310;BME280;36207;51.850;21.698;2023-04-06T11:03:18;100020.40;;;2.78;69.51
50310;BME280;36207;51.850;21.698;2023-04-06T11:05:45;100009.54;;;2.76;69.97
50310;BME280;36207;51.850;21.698;2023-04-06T11:08:29;100010.17;;;2.72;69.65
50310;BME280;36207;51.850;21.698;2023-04-06T11:11:08;100008.39;;;2.73;70.16
50310;BME280;36207;51.850;21.698;2023-04-06T11:16:06;100021.23;;;2.73;69.47
50310;BME280;36207;51.850;21.698;2023-04-06T11:18:32;100018.84;;;2.72;69.93
50310;BME280;36207;51.850;21.698;2023-04-06T11:20:58;100029.85;;;2.71;70.12
50310;BME280;36207;51.850;21.698;2023-04-06T11:23:24;100027.00;;;2.68;69.96
50310;BME280;36207;51.850;21.698;2023-04-06T11:25:52;100016.72;;;2.65;70.36
50310;BME280;36207;51.850;21.698;2023-04-06T11:28:19;100015.90;;;2.65;69.91
50310;BME280;36207;51.850;21.698;2023-04-06T11:30:48;100011.56;;;2.66;70.27
50310;BME280;36207;51.850;21.698;2023-04-06T11:33:21;100008.27;;;2.72;70.12
50310;BME280;36207;51.850;21.698;2023-04-06T11:35:50;100014.02;;;2.79;70.54
50310;BME280;36207;51.850;21.698;2023-04-06T11:38:18;100008.54;;;2.81;70.94
50310;BME280;36207;51.850;21.698;2023-04-06T11:40:45;100004.27;;;2.82;70.65
50310;BME280;36207;51.850;21.698;2023-04-06T11:43:11;100003.90;;;2.80;70.73
50310;BME280;36207;51.850;21.698;2023-04-06T11:45:43;100004.27;;;2.82;70.47
50310;BME280;36207;51.850;21.698;2023-04-06T11:48:19;100006.22;;;2.88;70.58
50310;BME280;36207;51.850;21.698;2023-04-06T11:50:48;99999.23;;;2.89;70.60
50310;BME280;36207;51.850;21.698;2023-04-06T11:53:14;99994.73;;;2.89;70.58
50310;BME280;36207;51.850;21.698;2023-04-06T11:55:40;99996.74;;;2.85;70.58
50310;BME280;36207;51.850;21.698;2023-04-06T11:58:06;99997.64;;;2.85;70.27
50310;BME280;36207;51.850;21.698;2023-04-06T12:00:32;99995.57;;;2.89;70.41
50310;BME280;36207;51.850;21.698;2023-04-06T12:03:00;99999.09;;;2.93;70.75
50310;BME280;36207;51.850;21.698;2023-04-06T12:05:26;99996.19;;;2.96;70.58
50310;BME280;36207;51.850;21.698;2023-04-06T12:07:52;99988.00;;;3.01;70.64
50310;BME280;36207;51.850;21.698;2023-04-06T12:10:18;99988.77;;;2.99;70.96
50310;BME280;36207;51.850;21.698;2023-04-06T12:12:44;99986.41;;;2.96;70.68
50310;BME280;36207;51.850;21.698;2023-04-06T12:15:10;99990.85;;;2.93;70.89
50310;BME280;36207;51.850;21.698;2023-04-06T12:17:36;99997.76;;;2.92;70.76
50310;BME280;36207;51.850;21.698;2023-04-06T12:20:03;99995.13;;;2.97;70.86
50310;BME280;36207;51.850;21.698;2023-04-06T12:22:29;99995.86;;;3.00;70.88
50310;BME280;36207;51.850;21.698;2023-04-06T12:24:55;99991.23;;;3.05;71.09
50310;BME280;36207;51.850;21.698;2023-04-06T12:27:21;99992.05;;;3.10;71.20
50310;BME280;36207;51.850;21.698;2023-04-06T12:29:47;99997.33;;;3.12;71.14
50310;BME280;36207;51.850;21.698;2023-04-06T12:32:13;99988.16;;;3.12;71.22
50310;BME280;36207;51.850;21.698;2023-04-06T12:34:42;99977.60;;;3.13;71.54
50310;BME280;36207;51.850;21.698;2023-04-06T12:37:08;99964.13;;;3.15;71.59
50310;BME280;36207;51.850;21.698;2023-04-06T12:39:34;99966.12;;;3.17;71.45
50310;BME280;36207;51.850;21.698;2023-04-06T12:42:01;99979.29;;;3.19;71.07
50310;BME280;36207;51.850;21.698;2023-04-06T12:44:28;99975.82;;;3.21;71.57
50310;BME280;36207;51.850;21.698;2023-04-06T12:46:55;99958.59;;;3.21;71.43
50310;BME280;36207;51.850;21.698;2023-04-06T12:49:21;99953.92;;;3.21;71.49
50310;BME280;36207;51.850;21.698;2023-04-06T12:51:48;99955.63;;;3.24;71.45
50310;BME280;36207;51.850;21.698;2023-04-06T12:54:14;99957.89;;;3.25;71.48
50310;BME280;36207;51.850;21.698;2023-04-06T12:56:41;99957.17;;;3.26;71.29
50310;BME280;36207;51.850;21.698;2023-04-06T12:59:07;99946.20;;;3.29;71.28